Time;durP1;ratioP1;P1;durP2;ratioP2;P2;SDS_P1;SDS_P2;PMS_P1;PMS_P2;Temp;Humidity;BMP_temperature;BMP_pressure;BME280_temperature;BME280_humidity;BME280_pressure;Samples;Min_cycle;Max_cycle;Signal;HPM_P1;HPM_P2
2021/09/13 00:00:02;;;;;;;10.93;6.53;;;;;;;;;;6170958;23;20191;-92
2021/09/13 00:03:16;;;;;;;11.63;6.72;;;;;;;;;;6172193;23;20172;-91
2021/09/13 00:06:22;;;;;;;10.55;6.65;;;;;;;;;;6170074;23;20168;-90
2021/09/13 00:09:27;;;;;;;11.23;6.30;;;;;;;;;;6170251;23;20181;-89
2021/09/13 00:12:34;;;;;;;12.55;6.13;;;;;;;;;;6171541;23;20195;-89
2021/09/13 00:15:40;;;;;;;10.38;6.05;;;;;;;;;;6169064;23;20612;-91
2021/09/13 00:18:46;;;;;;;10.38;6.65;;;;;;;;;;6170128;23;20171;-91
2021/09/13 00:21:52;;;;;;;13.55;6.20;;;;;;;;;;6170249;23;20177;-92
2021/09/13 00:24:59;;;;;;;10.63;6.53;;;;;;;;;;6168401;23;20200;-90
2021/09/13 00:28:06;;;;;;;11.75;6.18;;;;;;;;;;6168117;23;20181;-93
2021/09/13 00:31:12;;;;;;;10.50;6.30;;;;;;;;;;6168728;23;20176;-92
2021/09/13 00:34:17;;;;;;;11.40;6.20;;;;;;;;;;6168208;23;20168;-90
2021/09/13 00:37:23;;;;;;;8.43;5.90;;;;;;;;;;6168682;23;20172;-90
2021/09/13 00:40:28;;;;;;;10.70;6.45;;;;;;;;;;6166444;23;20172;-91
2021/09/13 00:43:37;;;;;;;9.88;5.68;;;;;;;;;;6168451;23;20173;-88
2021/09/13 00:46:43;;;;;;;11.30;6.20;;;;;;;;;;6168405;23;20169;-90
2021/09/13 00:49:48;;;;;;;8.02;5.65;;;;;;;;;;6167758;23;20173;-90
2021/09/13 00:52:55;;;;;;;9.43;5.82;;;;;;;;;;6168145;23;20172;-89
2021/09/13 00:56:00;;;;;;;10.32;6.20;;;;;;;;;;6169111;23;20224;-90
2021/09/13 00:59:07;;;;;;;11.30;5.80;;;;;;;;;;6168621;23;20505;-91
2021/09/13 01:02:12;;;;;;;10.60;5.80;;;;;;;;;;6167630;23;20267;-91
2021/09/13 01:05:18;;;;;;;9.65;5.82;;;;;;;;;;6166417;23;20192;-89
2021/09/13 01:08:23;;;;;;;11.88;6.65;;;;;;;;;;6167259;23;20167;-90
2021/09/13 01:11:29;;;;;;;10.85;6.30;;;;;;;;;;6166915;23;20232;-92
2021/09/13 01:14:38;;;;;;;9.82;6.57;;;;;;;;;;6169150;23;20169;-90
2021/09/13 01:17:43;;;;;;;13.35;6.78;;;;;;;;;;6169644;23;20623;-90
2021/09/13 01:20:48;;;;;;;13.75;7.38;;;;;;;;;;6169088;23;20241;-92
2021/09/13 01:23:56;;;;;;;10.90;6.50;;;;;;;;;;6170393;23;20173;-92
2021/09/13 01:27:03;;;;;;;12.15;6.30;;;;;;;;;;6152745;23;20173;-92
2021/09/13 01:30:09;;;;;;;11.93;6.82;;;;;;;;;;6169510;23;20172;-90
2021/09/13 01:33:14;;;;;;;11.48;6.22;;;;;;;;;;6170155;23;20168;-92
2021/09/13 01:36:22;;;;;;;12.70;6.68;;;;;;;;;;6170186;23;20260;-91
2021/09/13 01:39:29;;;;;;;12.32;6.38;;;;;;;;;;6168945;23;20212;-89
2021/09/13 01:42:34;;;;;;;13.30;6.57;;;;;;;;;;6169778;23;20160;-91
2021/09/13 01:45:40;;;;;;;9.80;6.45;;;;;;;;;;6168842;23;20193;-87
2021/09/13 01:48:45;;;;;;;11.02;6.78;;;;;;;;;;6169545;23;20241;-90
2021/09/13 01:51:51;;;;;;;11.70;6.57;;;;;;;;;;6169781;23;20279;-91
2021/09/13 01:54:58;;;;;;;10.85;6.30;;;;;;;;;;6169443;23;20163;-92
2021/09/13 01:58:04;;;;;;;12.07;6.47;;;;;;;;;;6168777;23;20232;-92
2021/09/13 02:01:10;;;;;;;11.07;6.20;;;;;;;;;;6167991;23;20233;-90
2021/09/13 02:04:18;;;;;;;13.20;6.40;;;;;;;;;;6170594;23;20264;-91
2021/09/13 02:07:25;;;;;;;11.23;6.38;;;;;;;;;;6170143;23;20191;-92
2021/09/13 02:10:32;;;;;;;10.85;6.38;;;;;;;;;;6171136;23;20175;-89
2021/09/13 02:13:37;;;;;;;10.98;6.15;;;;;;;;;;6170288;23;20169;-88
2021/09/13 02:16:44;;;;;;;10.23;6.40;;;;;;;;;;6169662;23;20220;-93
2021/09/13 02:19:52;;;;;;;13.07;6.25;;;;;;;;;;6170518;23;20174;-91
2021/09/13 02:22:57;;;;;;;12.05;6.45;;;;;;;;;;6169818;23;20247;-92
2021/09/13 02:26:04;;;;;;;11.05;6.22;;;;;;;;;;6169481;23;20192;-92
2021/09/13 02:29:09;;;;;;;10.35;6.10;;;;;;;;;;6172106;23;20172;-88
2021/09/13 02:32:14;;;;;;;13.43;6.30;;;;;;;;;;6172209;23;20225;-92
2021/09/13 02:35:23;;;;;;;11.55;6.38;;;;;;;;;;6172747;23;20208;-88
2021/09/13 02:38:29;;;;;;;11.23;5.90;;;;;;;;;;6173345;23;20160;-89
2021/09/13 02:41:36;;;;;;;9.77;6.20;;;;;;;;;;6173125;23;20168;-90
2021/09/13 02:44:45;;;;;;;11.43;5.50;;;;;;;;;;6171881;23;20195;-91
2021/09/13 02:47:53;;;;;;;9.10;5.63;;;;;;;;;;6172951;23;20209;-91
2021/09/13 02:50:58;;;;;;;10.52;6.20;;;;;;;;;;6173843;23;20233;-93
2021/09/13 02:54:06;;;;;;;12.23;6.22;;;;;;;;;;6174334;23;20169;-92
2021/09/13 02:57:15;;;;;;;13.75;6.32;;;;;;;;;;6174233;23;20160;-89
2021/09/13 03:00:21;;;;;;;10.32;6.82;;;;;;;;;;6173198;23;20193;-93
2021/09/13 03:03:32;;;;;;;14.70;7.15;;;;;;;;;;6174359;23;20168;-90
2021/09/13 03:06:38;;;;;;;12.93;7.32;;;;;;;;;;6174962;23;20218;-91
2021/09/13 03:09:44;;;;;;;16.52;7.60;;;;;;;;;;6174605;23;20604;-89
2021/09/13 03:12:51;;;;;;;12.88;7.55;;;;;;;;;;6173045;23;20243;-90
2021/09/13 03:15:56;;;;;;;14.90;7.30;;;;;;;;;;6173608;23;20231;-91
2021/09/13 03:19:02;;;;;;;14.70;8.18;;;;;;;;;;6173168;23;20172;-90
2021/09/13 03:22:07;;;;;;;15.10;7.88;;;;;;;;;;6173049;23;20168;-93
2021/09/13 03:25:13;;;;;;;12.07;7.70;;;;;;;;;;6171798;23;20236;-90
2021/09/13 03:28:21;;;;;;;18.23;8.52;;;;;;;;;;6173118;23;20173;-91
2021/09/13 03:31:27;;;;;;;17.00;8.10;;;;;;;;;;6173410;23;20172;-89
2021/09/13 03:34:32;;;;;;;16.80;8.82;;;;;;;;;;6175457;23;20168;-89
2021/09/13 03:37:38;;;;;;;14.52;7.90;;;;;;;;;;6172644;23;20160;-92
2021/09/13 03:40:44;;;;;;;14.35;8.77;;;;;;;;;;6171968;23;20172;-93
2021/09/13 03:43:52;;;;;;;15.70;8.02;;;;;;;;;;6171877;23;20172;-89
2021/09/13 03:46:57;;;;;;;25.30;7.70;;;;;;;;;;6171377;23;20172;-91
2021/09/13 03:50:13;;;;;;;26.40;8.75;;;;;;;;;;6171142;23;20177;-90
2021/09/13 03:53:19;;;;;;;24.83;7.88;;;;;;;;;;6172917;23;20192;-89
2021/09/13 03:56:26;;;;;;;15.30;7.55;;;;;;;;;;6176005;23;20217;-89
2021/09/13 03:59:35;;;;;;;16.48;8.85;;;;;;;;;;6175413;23;20173;-91
2021/09/13 04:02:47;;;;;;;17.02;8.18;;;;;;;;;;6177364;23;20288;-89
2021/09/13 04:05:57;;;;;;;21.75;8.52;;;;;;;;;;6174160;23;20188;-92
2021/09/13 04:13:08;;;;;;;18.52;7.85;;;;;;;;;;6176004;23;20169;-90
2021/09/13 04:16:27;;;;;;;44.35;8.82;;;;;;;;;;6174455;23;20181;-90
2021/09/13 04:19:48;;;;;;;19.80;8.48;;;;;;;;;;6176791;23;20248;-91
2021/09/13 04:23:24;;;;;;;22.88;8.50;;;;;;;;;;6121413;23;20241;-91
2021/09/13 04:26:48;;;;;;;16.08;8.30;;;;;;;;;;6176461;23;20332;-88
2021/09/13 04:30:03;;;;;;;16.85;8.75;;;;;;;;;;6177561;23;20153;-89
2021/09/13 04:33:23;;;;;;;22.70;9.38;;;;;;;;;;6176817;23;20173;-91
2021/09/13 04:37:05;;;;;;;27.92;8.70;;;;;;;;;;6175948;23;20157;-90
2021/09/13 04:40:29;;;;;;;20.48;9.27;;;;;;;;;;6177661;23;20234;-88
2021/09/13 04:43:47;;;;;;;22.85;9.65;;;;;;;;;;6175953;23;20692;-90
2021/09/13 04:47:06;;;;;;;19.85;9.73;;;;;;;;;;6174105;23;20172;-89
2021/09/13 04:50:30;;;;;;;18.10;9.80;;;;;;;;;;6174535;23;20222;-90
2021/09/13 04:54:00;;;;;;;21.13;9.75;;;;;;;;;;6172757;23;20185;-91
2021/09/13 04:57:07;;;;;;;24.30;9.32;;;;;;;;;;6172324;23;20173;-92
2021/09/13 05:00:16;;;;;;;36.15;9.32;;;;;;;;;;6173712;23;20192;-91
2021/09/13 05:03:22;;;;;;;15.98;9.02;;;;;;;;;;6173495;23;20551;-90
2021/09/13 05:06:30;;;;;;;15.48;7.60;;;;;;;;;;6171748;23;20199;-90
2021/09/13 05:09:45;;;;;;;14.52;8.13;;;;;;;;;;6172304;23;20184;-90
2021/09/13 05:12:51;;;;;;;23.00;7.93;;;;;;;;;;6171958;23;20230;-89
2021/09/13 05:16:00;;;;;;;41.20;8.77;;;;;;;;;;6171440;23;20504;-92
2021/09/13 05:19:14;;;;;;;17.52;8.50;;;;;;;;;;6173943;23;20193;-91
2021/09/13 05:22:19;;;;;;;18.58;8.45;;;;;;;;;;6173491;23;20171;-91
2021/09/13 05:25:27;;;;;;;20.15;8.38;;;;;;;;;;6173969;23;20232;-90
2021/09/13 05:28:33;;;;;;;25.52;8.48;;;;;;;;;;6173288;23;20168;-91
2021/09/13 05:31:39;;;;;;;20.75;8.75;;;;;;;;;;6173656;23;20180;-91
2021/09/13 05:34:48;;;;;;;25.70;8.60;;;;;;;;;;6173913;23;20193;-91
2021/09/13 05:37:55;;;;;;;25.02;7.50;;;;;;;;;;6174617;23;20165;-90
2021/09/13 22:01:12;;;;;;;10.43;5.47;;;;;;;;;;6153885;23;20211;-93
2021/09/13 22:04:18;;;;;;;7.07;4.75;;;;;;;;;;6204433;22;20240;-92
2021/09/13 22:07:23;;;;;;;8.95;4.60;;;;;;;;;;6203600;23;20231;-92
2021/09/13 22:10:29;;;;;;;6.85;4.40;;;;;;;;;;6202657;23;20186;-90
2021/09/13 22:13:36;;;;;;;10.77;4.97;;;;;;;;;;6202858;23;20180;-92
2021/09/13 22:16:43;;;;;;;7.68;4.75;;;;;;;;;;6202686;23;20223;-91
2021/09/13 22:19:49;;;;;;;8.40;4.82;;;;;;;;;;6203913;22;20294;-91
2021/09/13 22:22:55;;;;;;;11.15;5.00;;;;;;;;;;6202732;23;20239;-92
2021/09/13 22:26:00;;;;;;;8.73;5.05;;;;;;;;;;6202232;23;20195;-91
2021/09/13 22:29:05;;;;;;;10.15;4.80;;;;;;;;;;6202313;22;20151;-92
2021/09/13 22:32:12;;;;;;;7.88;4.82;;;;;;;;;;6201527;22;20172;-92
2021/09/13 22:35:17;;;;;;;7.90;5.15;;;;;;;;;;6201429;23;20203;-92
2021/09/13 22:38:22;;;;;;;10.00;5.22;;;;;;;;;;6202971;23;20221;-91
2021/09/13 22:41:28;;;;;;;7.75;4.88;;;;;;;;;;6202257;23;20183;-92
2021/09/13 22:44:34;;;;;;;12.23;5.38;;;;;;;;;;6201745;23;20168;-92
2021/09/13 22:47:41;;;;;;;8.40;5.25;;;;;;;;;;6203662;22;20195;-90
2021/09/13 22:50:46;;;;;;;12.70;5.57;;;;;;;;;;6203727;23;20252;-91
2021/09/13 22:53:51;;;;;;;7.82;5.00;;;;;;;;;;6204415;23;20156;-94
2021/09/13 22:56:56;;;;;;;8.38;5.18;;;;;;;;;;6205789;22;20241;-91
2021/09/13 23:00:02;;;;;;;10.43;5.13;;;;;;;;;;6204910;22;20172;-90
2021/09/13 23:03:09;;;;;;;6.85;4.53;;;;;;;;;;6203233;23;20171;-91
2021/09/13 23:06:14;;;;;;;7.22;4.70;;;;;;;;;;6203850;23;20215;-91
2021/09/13 23:09:20;;;;;;;7.10;4.80;;;;;;;;;;6204957;22;20164;-93
2021/09/13 23:12:27;;;;;;;9.52;5.20;;;;;;;;;;6205641;22;20179;-92
2021/09/13 23:15:33;;;;;;;9.38;5.35;;;;;;;;;;6204121;23;20192;-91
2021/09/13 23:18:43;;;;;;;10.27;5.47;;;;;;;;;;6204475;22;20211;-90
2021/09/13 23:21:51;;;;;;;11.52;6.47;;;;;;;;;;6203973;23;20216;-90
2021/09/13 23:24:58;;;;;;;10.18;5.75;;;;;;;;;;6205797;22;20167;-93
2021/09/13 23:28:03;;;;;;;11.38;5.47;;;;;;;;;;6206225;22;20654;-92
2021/09/13 23:31:09;;;;;;;10.57;5.72;;;;;;;;;;6203862;22;20171;-93
2021/09/13 23:34:18;;;;;;;8.80;5.18;;;;;;;;;;6205896;22;20187;-92
2021/09/13 23:37:25;;;;;;;13.00;5.95;;;;;;;;;;6205862;23;20183;-94
2021/09/13 23:40:33;;;;;;;14.50;5.75;;;;;;;;;;6205347;22;20188;-93
2021/09/13 23:43:40;;;;;;;11.27;5.50;;;;;;;;;;6204157;23;20164;-92
2021/09/13 23:46:46;;;;;;;22.25;8.90;;;;;;;;;;6202135;22;20511;-91
2021/09/13 23:49:54;;;;;;;10.88;5.93;;;;;;;;;;6204249;22;20666;-90
2021/09/13 23:53:02;;;;;;;9.88;5.75;;;;;;;;;;6202643;23;20172;-91
2021/09/13 23:56:08;;;;;;;11.80;6.35;;;;;;;;;;6205957;23;20207;-90
2021/09/13 23:59:13;;;;;;;9.70;5.55;;;;;;;;;;6205186;23;20155;-91
